Leme, Brazil
Current Conditions -  °F | °C
As of 3:00 PM on Monday 20 Oct 2014 (Local Time) from SBYS Reporting Station
Broken Clouds Broken Clouds  
Wind Chill: 79°   Ceiling: 10000
Heat Index: 80°   Visibility: 6mi
Dew Point: 63°   Wind: 10mph
Humidity: 57%   Direction: 180°S
Pressure: 30"   Gusts: NA
Location:  22.18°S, 47.38°W
Report Text: SBYS 201800Z 18009KT 9999 SCT030 BKN100 26/17 Q1016
Loading
Personal Weather Stations






























Interactive Weather Map
Tropical Storm Tracking
New forecast layout! Learn more

10-Day Weather Forecast

Advertisements
Track Severe Weather on mobile